Time;durP1;ratioP1;P1;durP2;ratioP2;P2;SDS_P1;SDS_P2;PMS_P1;PMS_P2;Temp;Humidity;BMP_temperature;BMP_pressure;BME280_temperature;BME280_humidity;BME280_pressure;Samples;Min_cycle;Max_cycle;Signal;HPM_P1;HPM_P2
2024/04/23 00:01:59;;;;;;;1.45;1.33;;;10.10;51.60;;;;;;6839073;25;20416;-68
2024/04/23 00:05:00;;;;;;;3.80;2.17;;;10.10;51.70;;;;;;6837176;26;19998;-68
2024/04/23 00:08:03;;;;;;;2.33;1.70;;;10.00;51.60;;;;;;6836925;26;20734;-68
2024/04/23 00:11:04;;;;;;;3.13;1.60;;;9.90;51.70;;;;;;6836278;25;20001;-68
2024/04/23 00:14:05;;;;;;;3.45;1.70;;;9.90;51.90;;;;;;6805571;26;19997;-67
2024/04/23 00:17:07;;;;;;;2.47;1.95;;;9.90;52.10;;;;;;6835811;26;20000;-67
2024/04/23 00:20:08;;;;;;;2.55;1.77;;;9.90;52.00;;;;;;6837018;26;20029;-66
2024/04/23 00:23:09;;;;;;;2.67;1.50;;;9.90;52.10;;;;;;6838829;26;20007;-69
2024/04/23 00:26:10;;;;;;;4.20;2.03;;;9.90;52.00;;;;;;6839523;25;20021;-67
2024/04/23 00:29:12;;;;;;;3.22;2.08;;;9.80;52.20;;;;;;6804201;26;20023;-69
2024/04/23 00:32:12;;;;;;;2.25;1.50;;;9.70;52.30;;;;;;6836417;26;20001;-67
2024/04/23 00:35:13;;;;;;;3.35;1.80;;;9.70;52.60;;;;;;6839407;25;19990;-67
2024/04/23 00:38:14;;;;;;;3.95;2.00;;;9.70;52.60;;;;;;6837370;26;20003;-67
2024/04/23 00:41:15;;;;;;;4.05;1.98;;;9.70;52.70;;;;;;6836474;26;20005;-67
2024/04/23 00:44:16;;;;;;;2.63;1.50;;;9.70;52.70;;;;;;6835633;26;20406;-68
2024/04/23 00:47:20;;;;;;;3.67;1.75;;;9.70;52.70;;;;;;6835115;26;20008;-68
2024/04/23 00:50:21;;;;;;;7.95;1.85;;;9.70;52.70;;;;;;6807759;26;20477;-67
2024/04/23 00:53:22;;;;;;;4.45;2.00;;;9.70;52.70;;;;;;6837749;26;20009;-65
2024/04/23 00:56:24;;;;;;;2.20;1.55;;;9.70;52.80;;;;;;6837823;26;20528;-67
2024/04/23 00:59:25;;;;;;;2.22;1.52;;;9.70;52.90;;;;;;6836905;26;20078;-68
2024/04/23 01:02:26;;;;;;;3.35;2.20;;;9.70;53.00;;;;;;6835268;26;20382;-67
2024/04/23 01:05:27;;;;;;;2.28;1.55;;;9.70;52.80;;;;;;6838633;26;20124;-67
2024/04/23 01:08:28;;;;;;;2.25;1.75;;;9.60;52.70;;;;;;6838833;25;20001;-66
2024/04/23 01:11:30;;;;;;;2.40;1.35;;;9.60;52.90;;;;;;6838600;26;20286;-68
2024/04/23 01:14:33;;;;;;;4.60;2.25;;;9.60;52.90;;;;;;6860389;25;19994;-69
2024/04/23 01:17:39;;;;;;;1.98;1.48;;;9.60;52.70;;;;;;6838730;26;20635;-67
2024/04/23 01:20:41;;;;;;;3.80;1.83;;;9.60;52.70;;;;;;6828910;26;20006;-67
2024/04/23 01:23:56;;;;;;;4.20;1.73;;;9.60;52.80;;;;;;6828465;26;19998;-68
2024/04/23 01:27:00;;;;;;;1.80;1.50;;;9.70;52.80;;;;;;6834363;26;20134;-68
2024/04/23 01:30:03;;;;;;;3.70;1.85;;;9.70;53.00;;;;;;6836953;25;20009;-68
2024/04/23 01:33:06;;;;;;;3.38;1.40;;;9.70;53.00;;;;;;6835146;26;20001;-68
2024/04/23 01:36:08;;;;;;;2.28;1.50;;;9.70;53.00;;;;;;6768803;26;20039;-68
2024/04/23 01:39:09;;;;;;;2.38;1.63;;;9.70;53.00;;;;;;6788530;26;20018;-68
2024/04/23 01:42:10;;;;;;;2.35;1.30;;;9.70;53.00;;;;;;6800838;26;20053;-67
2024/04/23 01:45:15;;;;;;;1.85;1.50;;;9.60;53.00;;;;;;6836279;25;20013;-65
2024/04/23 01:48:16;;;;;;;2.50;1.48;;;9.60;53.20;;;;;;6837291;26;20611;-67
2024/04/23 01:51:17;;;;;;;3.10;2.00;;;9.60;52.90;;;;;;6805007;26;20012;-66
2024/04/23 01:54:18;;;;;;;2.58;1.63;;;9.60;52.90;;;;;;6835179;25;20005;-69
2024/04/23 01:57:19;;;;;;;2.33;1.50;;;9.50;53.10;;;;;;6803007;26;20002;-67
2024/04/23 02:00:23;;;;;;;3.75;2.75;;;9.60;53.20;;;;;;6804145;26;20001;-65
2024/04/23 02:03:24;;;;;;;2.97;1.67;;;9.50;53.10;;;;;;6803706;26;20012;-67
2024/04/23 02:06:27;;;;;;;3.42;2.10;;;9.50;53.00;;;;;;6804403;26;19994;-67
2024/04/23 02:09:28;;;;;;;3.08;1.70;;;9.50;53.10;;;;;;6804211;26;19993;-66
2024/04/23 02:12:29;;;;;;;3.85;1.80;;;9.50;53.10;;;;;;6803171;26;19997;-67
2024/04/23 02:15:30;;;;;;;3.30;2.00;;;9.40;53.20;;;;;;6803530;26;20009;-66
2024/04/23 02:18:31;;;;;;;3.00;1.90;;;9.50;53.40;;;;;;6774619;26;20000;-69
2024/04/23 02:21:32;;;;;;;2.42;1.58;;;9.50;53.50;;;;;;6836726;26;19990;-68
2024/04/23 02:24:33;;;;;;;3.35;1.90;;;9.50;53.50;;;;;;6837016;26;20416;-68
2024/04/23 02:27:34;;;;;;;3.45;1.33;;;9.50;53.60;;;;;;6773962;25;20004;-67
2024/04/23 02:30:35;;;;;;;3.88;1.95;;;9.50;53.70;;;;;;6773333;26;19997;-67
2024/04/23 02:33:36;;;;;;;2.22;1.77;;;9.50;53.80;;;;;;6802598;26;20004;-67
2024/04/23 02:36:37;;;;;;;6.25;1.52;;;9.40;53.70;;;;;;6772170;26;19994;-67
2024/04/23 02:39:38;;;;;;;4.78;1.90;;;9.50;53.70;;;;;;6802690;26;20301;-68
2024/04/23 02:42:39;;;;;;;2.17;1.70;;;9.50;53.90;;;;;;6802863;26;20010;-68
2024/04/23 02:45:40;;;;;;;2.42;1.27;;;9.40;53.80;;;;;;6802211;26;20069;-66
2024/04/23 02:48:41;;;;;;;2.75;1.60;;;9.40;53.80;;;;;;6835029;26;19993;-68
2024/04/23 02:51:53;;;;;;;2.28;1.70;;;9.40;53.70;;;;;;6774010;26;20001;-66
2024/04/23 02:54:53;;;;;;;2.72;1.65;;;9.40;53.80;;;;;;6803600;26;20502;-67
2024/04/23 02:57:54;;;;;;;2.80;1.60;;;9.40;53.80;;;;;;6836959;26;20012;-68
2024/04/23 03:00:55;;;;;;;2.60;1.90;;;9.30;53.80;;;;;;6758202;26;19994;-68
2024/04/23 03:03:57;;;;;;;3.28;1.77;;;9.30;54.30;;;;;;6832866;26;20132;-67
2024/04/23 03:06:58;;;;;;;3.00;1.70;;;9.30;53.70;;;;;;6804040;26;20402;-67
2024/04/23 03:10:00;;;;;;;2.83;1.85;;;9.30;53.70;;;;;;6839884;26;19993;-70
2024/04/23 03:13:01;;;;;;;2.35;1.35;;;9.30;53.70;;;;;;6838466;26;20008;-66
2024/04/23 03:16:03;;;;;;;2.58;1.92;;;9.30;53.90;;;;;;6778044;26;20156;-67
2024/04/23 03:19:03;;;;;;;3.03;1.67;;;9.30;54.10;;;;;;6839401;26;20092;-67
2024/04/23 03:22:04;;;;;;;1.73;1.35;;;9.30;54.10;;;;;;6806433;26;20005;-67
2024/04/23 03:25:05;;;;;;;3.42;2.15;;;9.30;53.90;;;;;;6782563;26;20043;-69
2024/04/23 03:28:07;;;;;;;3.35;2.10;;;9.20;53.90;;;;;;6806054;26;20013;-69
2024/04/23 03:31:08;;;;;;;4.15;2.03;;;9.30;53.90;;;;;;6807555;26;20008;-67
2024/04/23 03:34:09;;;;;;;2.63;1.48;;;9.20;53.90;;;;;;6839082;26;20032;-68
2024/04/23 03:37:10;;;;;;;3.53;2.10;;;9.20;54.10;;;;;;6839234;26;20119;-69
2024/04/23 03:40:12;;;;;;;1.55;1.38;;;9.10;54.10;;;;;;6838452;26;20188;-67
2024/04/23 03:43:15;;;;;;;1.88;1.27;;;9.10;54.30;;;;;;6838679;26;20090;-66
2024/04/23 03:46:15;;;;;;;2.75;1.90;;;9.10;54.20;;;;;;6806189;26;20004;-67
2024/04/23 03:49:16;;;;;;;3.00;1.92;;;9.00;54.30;;;;;;6839210;26;19997;-67
2024/04/23 03:52:18;;;;;;;3.97;1.63;;;9.00;54.40;;;;;;6805589;26;20024;-67
2024/04/23 03:55:18;;;;;;;5.20;1.65;;;9.00;54.50;;;;;;6810861;26;20029;-68
2024/04/23 03:58:19;;;;;;;6.25;2.40;;;9.00;54.70;;;;;;6839048;25;20078;-67
2024/04/23 04:01:21;;;;;;;2.53;1.50;;;8.90;54.70;;;;;;6839357;25;20077;-66
2024/04/23 04:07:41;;;;;;;3.20;2.28;;;8.90;54.80;;;;;;6827628;26;20334;-68
2024/04/23 04:10:43;;;;;;;3.13;1.80;;;8.90;54.70;;;;;;6836211;26;20461;-67
2024/04/23 04:13:44;;;;;;;4.50;2.20;;;9.00;54.60;;;;;;6835943;26;19994;-66
2024/04/23 04:16:45;;;;;;;4.07;2.55;;;9.00;54.40;;;;;;6835518;26;20001;-67
2024/04/23 04:19:45;;;;;;;10.32;1.98;;;9.00;54.40;;;;;;6831901;25;20017;-66
2024/04/23 04:22:46;;;;;;;2.92;1.75;;;9.00;54.30;;;;;;6835584;25;20017;-67
2024/04/23 04:25:48;;;;;;;3.83;2.13;;;9.10;54.30;;;;;;6837401;26;20008;-66
2024/04/23 04:28:49;;;;;;;5.95;1.90;;;9.00;54.20;;;;;;6836659;26;19994;-67
2024/04/23 04:31:50;;;;;;;3.17;1.52;;;9.00;54.20;;;;;;6835896;26;20001;-66
2024/04/23 04:34:51;;;;;;;3.30;1.83;;;9.00;54.20;;;;;;6805921;26;19998;-67
2024/04/23 04:37:53;;;;;;;3.63;2.47;;;9.00;54.10;;;;;;6834890;26;19989;-67
2024/04/23 04:40:54;;;;;;;3.38;1.67;;;9.00;54.00;;;;;;6773834;26;20005;-67
2024/04/23 04:43:56;;;;;;;3.13;1.92;;;9.00;54.10;;;;;;6835691;25;19993;-67
2024/04/23 04:46:57;;;;;;;2.33;1.73;;;9.00;54.10;;;;;;6835668;26;20730;-67
2024/04/23 04:49:58;;;;;;;3.00;2.00;;;9.00;54.00;;;;;;6836045;26;20073;-67
2024/04/23 04:52:59;;;;;;;3.25;1.60;;;9.10;54.00;;;;;;6835568;26;19994;-68
2024/04/23 04:56:00;;;;;;;2.50;1.45;;;9.10;53.80;;;;;;6837642;26;20021;-67
2024/04/23 04:59:02;;;;;;;6.57;2.42;;;9.00;53.70;;;;;;6759569;26;20000;-66
2024/04/23 05:02:03;;;;;;;1.42;1.23;;;9.00;53.80;;;;;;6768580;26;20366;-66
2024/04/23 05:05:04;;;;;;;2.78;1.55;;;9.10;53.70;;;;;;6804275;26;20013;-67
2024/04/23 05:08:05;;;;;;;2.17;1.50;;;9.10;53.70;;;;;;6804127;26;20008;-68
2024/04/23 05:11:06;;;;;;;2.63;1.77;;;9.10;53.60;;;;;;6805309;26;20041;-67
2024/04/23 05:14:07;;;;;;;3.28;2.00;;;9.10;53.50;;;;;;6804581;26;20112;-67
2024/04/23 05:17:08;;;;;;;2.33;1.90;;;9.10;53.40;;;;;;6772453;26;20013;-67
2024/04/23 05:20:10;;;;;;;6.15;1.92;;;9.10;53.50;;;;;;6815016;26;20080;-68
2024/04/23 05:23:11;;;;;;;3.63;2.25;;;9.10;53.60;;;;;;6776506;25;20021;-66
2024/04/23 05:26:12;;;;;;;2.22;1.63;;;9.10;53.50;;;;;;6803022;26;20069;-67
2024/04/23 05:29:13;;;;;;;4.68;1.88;;;9.10;53.40;;;;;;6836273;26;20008;-68
2024/04/23 05:35:33;;;;;;;17.48;1.75;;;9.10;53.40;;;;;;6836117;25;20006;-67
2024/04/23 05:38:34;;;;;;;4.68;2.35;;;9.10;53.40;;;;;;6804227;26;20062;-67
2024/04/23 05:41:35;;;;;;;3.90;1.70;;;9.10;53.40;;;;;;6805204;26;20005;-69
2024/04/23 05:44:36;;;;;;;1.70;1.58;;;9.10;53.40;;;;;;6805156;26;20004;-67
2024/04/23 05:48:14;;;;;;;2.40;1.83;;;9.10;53.50;;;;;;6803795;26;20000;-66
2024/04/23 05:52:11;;;;;;;4.75;2.05;;;9.00;53.50;;;;;;6812402;26;20468;-69
2024/04/23 05:55:40;;;;;;;3.30;2.05;;;9.00;53.70;;;;;;6813534;26;19997;-66
2024/04/23 05:58:41;;;;;;;4.22;1.90;;;9.00;53.70;;;;;;6803502;26;20322;-67
2024/04/23 06:01:42;;;;;;;3.35;1.98;;;9.00;53.70;;;;;;6835073;26;19994;-68
2024/04/23 06:04:43;;;;;;;2.97;1.60;;;9.10;53.80;;;;;;6835925;26;20053;-69
2024/04/23 06:07:47;;;;;;;5.75;1.70;;;9.00;53.80;;;;;;6824400;26;19997;-67
2024/04/23 06:10:48;;;;;;;3.22;2.05;;;9.00;53.90;;;;;;6833874;26;20208;-67
2024/04/23 06:13:49;;;;;;;4.10;2.00;;;8.90;54.10;;;;;;6835961;25;20002;-68
2024/04/23 06:17:23;;;;;;;6.13;2.58;;;8.90;54.10;;;;;;6803301;26;20002;-68
2024/04/23 06:20:24;;;;;;;2.17;1.70;;;9.00;54.10;;;;;;6834729;26;20001;-68
2024/04/23 06:23:27;;;;;;;4.57;2.28;;;9.00;54.10;;;;;;6835488;25;19993;-67
2024/04/23 06:26:29;;;;;;;3.97;2.53;;;9.10;54.00;;;;;;6834502;26;19997;-67
2024/04/23 06:29:30;;;;;;;7.10;2.38;;;9.10;54.00;;;;;;6804880;25;20091;-67
2024/04/23 06:32:31;;;;;;;3.85;2.08;;;9.10;54.00;;;;;;6757275;26;20032;-66
2024/04/23 06:35:32;;;;;;;2.85;1.65;;;9.10;54.00;;;;;;6828365;26;19997;-67
2024/04/23 06:38:33;;;;;;;3.78;1.80;;;9.10;53.90;;;;;;6833720;25;19997;-68
2024/04/23 06:41:33;;;;;;;2.95;2.03;;;9.20;54.00;;;;;;6833072;26;19994;-67
2024/04/23 06:44:34;;;;;;;4.40;2.75;;;9.20;53.90;;;;;;6839588;25;20065;-67
2024/04/23 06:47:35;;;;;;;4.75;2.50;;;9.30;53.90;;;;;;6836601;26;20021;-68
2024/04/23 06:50:36;;;;;;;3.10;1.73;;;9.30;53.90;;;;;;6776468;26;20029;-68
2024/04/23 06:53:37;;;;;;;3.72;2.33;;;9.30;54.00;;;;;;6837461;26;20025;-68
2024/04/23 06:56:38;;;;;;;4.93;2.65;;;9.30;54.00;;;;;;6836950;26;20004;-68
2024/04/23 06:59:42;;;;;;;3.80;2.25;;;9.40;54.00;;;;;;6840324;26;20390;-69
2024/04/23 07:02:44;;;;;;;10.98;2.45;;;9.40;54.00;;;;;;6777492;26;19993;-69
2024/04/23 07:05:50;;;;;;;3.72;2.25;;;9.50;53.90;;;;;;6838658;26;20327;-67
2024/04/23 07:08:52;;;;;;;5.28;2.50;;;9.40;53.80;;;;;;6807144;26;20012;-68
2024/04/23 07:16:22;;;;;;;3.97;2.28;;;9.40;53.80;;;;;;6830341;26;20079;-69
2024/04/23 07:19:23;;;;;;;18.70;2.38;;;9.50;53.70;;;;;;6837417;26;19997;-68
2024/04/23 07:22:25;;;;;;;3.10;2.10;;;9.50;53.50;;;;;;6838246;25;20012;-67
2024/04/23 07:25:26;;;;;;;4.40;3.03;;;9.60;53.40;;;;;;6807453;26;19994;-66
2024/04/23 07:28:29;;;;;;;3.47;2.20;;;9.60;53.10;;;;;;6803427;26;20001;-68
2024/04/23 07:31:30;;;;;;;1.88;1.73;;;9.60;53.10;;;;;;6833261;25;20003;-67
2024/04/23 07:34:32;;;;;;;3.50;2.53;;;9.60;53.00;;;;;;6838255;26;20009;-67
2024/04/23 07:37:33;;;;;;;3.15;1.88;;;9.60;52.90;;;;;;6837288;26;20020;-67
2024/04/23 07:40:34;;;;;;;2.88;1.92;;;9.60;52.90;;;;;;6836633;26;20076;-67
2024/04/23 07:43:35;;;;;;;2.67;2.13;;;9.60;52.80;;;;;;6836295;25;19993;-68
2024/04/23 07:46:37;;;;;;;13.45;2.58;;;9.60;52.80;;;;;;6839090;26;20004;-68
2024/04/23 07:49:38;;;;;;;4.32;2.53;;;9.60;52.90;;;;;;6833185;26;20009;-68
2024/04/23 07:52:40;;;;;;;4.45;2.40;;;9.60;52.90;;;;;;6805678;26;20073;-67
2024/04/23 07:55:41;;;;;;;3.53;2.05;;;9.60;52.90;;;;;;6837303;25;20122;-68
2024/04/23 07:58:42;;;;;;;5.68;3.08;;;9.60;52.80;;;;;;6804541;26;20033;-68
2024/04/23 08:01:43;;;;;;;6.32;2.83;;;9.60;52.80;;;;;;6775029;26;20018;-68
2024/04/23 08:04:44;;;;;;;4.55;2.42;;;9.50;52.90;;;;;;6801475;26;20010;-67
2024/04/23 08:07:44;;;;;;;2.65;1.95;;;9.50;53.20;;;;;;6787546;26;20029;-67
2024/04/23 08:10:45;;;;;;;3.20;2.22;;;9.50;53.40;;;;;;6805499;26;20398;-70
2024/04/23 08:13:47;;;;;;;4.22;2.35;;;9.50;53.40;;;;;;6839371;26;20879;-68
2024/04/23 08:16:47;;;;;;;4.35;1.70;;;9.70;53.20;;;;;;6838745;26;20001;-67
2024/04/23 08:19:49;;;;;;;9.82;2.33;;;9.80;52.80;;;;;;6837922;26;20005;-68
2024/04/23 08:22:57;;;;;;;2.92;2.33;;;9.90;52.60;;;;;;6806368;26;19998;-69
2024/04/23 08:26:00;;;;;;;4.47;2.55;;;10.10;52.30;;;;;;6777427;25;20021;-67
2024/04/23 08:29:01;;;;;;;3.60;2.50;;;10.20;51.90;;;;;;6806083;26;19994;-68
2024/04/23 08:32:02;;;;;;;4.13;2.65;;;10.30;51.70;;;;;;6805092;26;20445;-68
2024/04/23 08:35:03;;;;;;;4.30;2.83;;;10.30;51.60;;;;;;6839027;26;20069;-67
2024/04/23 08:38:05;;;;;;;5.50;2.42;;;10.30;51.60;;;;;;6837681;26;20125;-66
2024/04/23 08:41:06;;;;;;;6.68;3.00;;;10.40;51.40;;;;;;6838074;26;20414;-69
2024/04/23 08:44:08;;;;;;;5.50;2.60;;;10.40;51.30;;;;;;6838505;25;20008;-66
2024/04/23 08:47:10;;;;;;;3.65;2.45;;;10.50;51.30;;;;;;6803702;26;20428;-68
2024/04/23 08:50:12;;;;;;;5.18;2.70;;;10.50;51.20;;;;;;6775514;26;20008;-68
2024/04/23 08:53:14;;;;;;;4.43;2.45;;;10.60;51.10;;;;;;6760102;26;20406;-69
2024/04/23 08:56:25;;;;;;;3.78;2.17;;;10.50;51.10;;;;;;6803710;26;20354;-69
2024/04/23 08:59:29;;;;;;;4.53;2.05;;;10.50;51.00;;;;;;6806263;25;20055;-68
2024/04/23 09:02:35;;;;;;;2.50;1.83;;;10.50;51.00;;;;;;6805344;26;19998;-67
2024/04/23 09:05:36;;;;;;;3.63;2.72;;;10.40;51.00;;;;;;6837039;26;20005;-68
2024/04/23 09:08:39;;;;;;;7.63;2.35;;;10.40;51.00;;;;;;6836495;26;20289;-70
2024/04/23 09:11:40;;;;;;;5.25;2.22;;;10.40;51.00;;;;;;6837860;26;20466;-69
2024/04/23 09:14:44;;;;;;;5.40;2.65;;;10.50;51.10;;;;;;6838486;26;20041;-68
2024/04/23 09:17:55;;;;;;;4.28;2.70;;;10.50;51.00;;;;;;6837449;26;20318;-66
2024/04/23 09:20:58;;;;;;;6.32;2.55;;;10.70;50.90;;;;;;6806743;26;20073;-70
2024/04/23 09:24:03;;;;;;;2.85;2.30;;;10.70;50.70;;;;;;6840078;26;20332;-68
2024/04/23 09:27:04;;;;;;;3.70;2.53;;;10.70;50.60;;;;;;6815297;26;20035;-67
2024/04/23 09:30:08;;;;;;;7.88;3.42;;;10.80;50.50;;;;;;6806632;26;20371;-68
2024/04/23 09:33:09;;;;;;;5.25;2.88;;;10.90;50.30;;;;;;6805510;26;19998;-67
2024/04/23 09:36:13;;;;;;;5.07;2.85;;;11.00;50.20;;;;;;6805201;26;20094;-69
2024/04/23 09:39:15;;;;;;;3.58;1.95;;;11.10;50.00;;;;;;6775166;26;20001;-69
2024/04/23 09:42:23;;;;;;;3.40;2.30;;;11.20;49.90;;;;;;6805549;26;20002;-67
2024/04/23 09:45:27;;;;;;;;;;;11.20;49.80;;;;;;6775999;26;19998;-67
2024/04/23 09:48:30;;;;;;;3.63;2.90;;;11.30;49.60;;;;;;6805370;26;20012;-69
2024/04/23 09:51:31;;;;;;;5.00;2.95;;;11.40;49.40;;;;;;6805448;26;19997;-68
2024/04/23 09:54:40;;;;;;;4.70;2.28;;;11.40;49.10;;;;;;6804739;26;20425;-67
2024/04/23 09:57:41;;;;;;;6.60;2.67;;;11.40;49.10;;;;;;6804415;26;20131;-67
2024/04/23 10:00:42;;;;;;;5.50;3.15;;;11.40;49.20;;;;;;6803239;26;20503;-69
2024/04/23 10:03:44;;;;;;;9.48;3.20;;;11.40;49.30;;;;;;6804343;26;20016;-68
2024/04/23 10:06:51;;;;;;;3.95;2.20;;;11.30;49.30;;;;;;6836733;26;20367;-67
2024/04/23 10:09:52;;;;;;;7.15;2.40;;;11.40;49.30;;;;;;6804278;26;19997;-69
2024/04/23 10:12:56;;;;;;;5.38;2.75;;;11.50;49.10;;;;;;6804668;26;20001;-68
2024/04/23 10:16:15;;;;;;;5.50;2.92;;;11.50;49.00;;;;;;6804914;26;20148;-68
2024/04/23 10:19:17;;;;;;;4.72;2.92;;;11.50;49.00;;;;;;6800198;26;20101;-67
2024/04/23 10:22:19;;;;;;;4.18;2.70;;;11.60;48.90;;;;;;6782361;26;20013;-68
2024/04/23 10:25:20;;;;;;;5.18;2.78;;;11.80;48.70;;;;;;6841369;26;20097;-67
2024/04/23 10:28:23;;;;;;;4.85;2.88;;;11.80;48.30;;;;;;6807732;26;19998;-69
2024/04/23 10:31:24;;;;;;;4.32;2.35;;;12.00;48.20;;;;;;6840705;25;20002;-68
2024/04/23 10:34:29;;;;;;;8.73;3.70;;;11.90;47.90;;;;;;6808165;26;20002;-68
2024/04/23 10:37:32;;;;;;;3.38;2.55;;;11.90;48.00;;;;;;6833695;26;20020;-68
2024/04/23 10:40:33;;;;;;;5.40;1.92;;;11.90;48.00;;;;;;6810550;26;20005;-68
2024/04/23 10:43:34;;;;;;;4.05;2.67;;;12.00;47.90;;;;;;6841039;26;19994;-67
2024/04/23 10:46:37;;;;;;;8.40;3.65;;;12.10;47.70;;;;;;6808801;26;19998;-67
2024/04/23 10:49:40;;;;;;;3.88;2.25;;;12.20;47.60;;;;;;6802046;26;19998;-69
2024/04/23 10:52:41;;;;;;;9.80;2.75;;;12.30;47.40;;;;;;6810848;26;20031;-67
2024/04/23 10:55:50;;;;;;;6.05;2.92;;;12.40;47.30;;;;;;6789616;26;20001;-67
2024/04/23 10:59:04;;;;;;;5.65;2.83;;;12.40;47.00;;;;;;6839735;26;20457;-68
2024/04/23 11:02:08;;;;;;;4.18;2.30;;;12.40;47.00;;;;;;6840679;26;20025;-68
2024/04/23 11:05:18;;;;;;;6.57;2.95;;;12.40;46.80;;;;;;6839920;26;19998;-68
2024/04/23 11:08:26;;;;;;;6.80;3.10;;;12.30;46.80;;;;;;6840077;26;20110;-68
2024/04/23 11:11:37;;;;;;;6.25;2.83;;;12.30;46.80;;;;;;6838916;26;20016;-66
2024/04/23 11:14:38;;;;;;;6.43;3.05;;;12.40;46.60;;;;;;6808938;26;20171;-68
2024/04/23 11:17:42;;;;;;;3.58;2.50;;;12.50;46.50;;;;;;6839169;26;20008;-67
2024/04/23 11:20:44;;;;;;;5.32;2.80;;;12.50;46.40;;;;;;6838253;26;20020;-66
2024/04/23 11:23:49;;;;;;;3.97;2.47;;;12.50;46.30;;;;;;6839759;26;20028;-67
2024/04/23 11:26:49;;;;;;;5.30;2.92;;;12.50;46.20;;;;;;6807979;26;20009;-67
2024/04/23 11:29:52;;;;;;;5.07;2.40;;;12.50;46.20;;;;;;6839576;26;20144;-69
2024/04/23 11:32:53;;;;;;;6.95;2.65;;;12.60;46.10;;;;;;6838210;26;20001;-67
2024/04/23 11:35:54;;;;;;;5.40;2.67;;;12.80;45.80;;;;;;6838595;26;20009;-67
2024/04/23 11:39:00;;;;;;;8.73;3.20;;;13.00;45.50;;;;;;6838265;26;20013;-69
2024/04/23 11:42:01;;;;;;;8.05;2.40;;;13.10;45.00;;;;;;6837351;26;20064;-67
2024/04/23 11:45:05;;;;;;;6.00;3.15;;;13.20;44.70;;;;;;6807503;26;19993;-67
2024/04/23 11:48:07;;;;;;;7.32;3.05;;;13.20;44.60;;;;;;6838788;26;20277;-68
2024/04/23 11:51:09;;;;;;;6.20;2.83;;;13.20;44.60;;;;;;6838999;25;20004;-67
2024/04/23 11:54:10;;;;;;;6.45;3.17;;;13.10;44.90;;;;;;6838059;26;19997;-67
2024/04/23 11:57:11;;;;;;;4.97;3.05;;;13.00;45.40;;;;;;6747236;26;19997;-68
2024/04/23 12:00:12;;;;;;;9.48;3.42;;;12.90;45.90;;;;;;6805600;26;20424;-67
2024/04/23 12:03:13;;;;;;;4.90;3.00;;;12.70;46.50;;;;;;6805952;26;21431;-68
2024/04/23 12:06:14;;;;;;;8.35;3.17;;;12.60;47.00;;;;;;6806961;26;20362;-68
2024/04/23 12:09:15;;;;;;;6.32;2.70;;;12.60;47.40;;;;;;6807627;26;20119;-68
2024/04/23 12:12:19;;;;;;;5.95;3.25;;;12.60;47.60;;;;;;6754581;26;19994;-67
2024/04/23 12:15:20;;;;;;;5.28;3.08;;;12.80;47.70;;;;;;6762619;26;20729;-67
2024/04/23 12:18:21;;;;;;;4.97;2.50;;;13.00;47.50;;;;;;6791915;26;20002;-67
2024/04/23 12:21:24;;;;;;;6.03;3.28;;;13.10;47.30;;;;;;6798798;26;20416;-68
2024/04/23 12:24:25;;;;;;;17.95;3.45;;;13.20;47.30;;;;;;6813622;26;20005;-68
2024/04/23 12:27:26;;;;;;;6.28;3.03;;;13.40;47.00;;;;;;6838214;26;20017;-67
2024/04/23 12:30:27;;;;;;;5.40;3.38;;;13.40;47.40;;;;;;6826976;26;20455;-67
2024/04/23 12:33:28;;;;;;;3.88;2.50;;;13.50;46.90;;;;;;6775333;26;20008;-68
2024/04/23 12:36:30;;;;;;;3.95;2.88;;;13.70;45.90;;;;;;6804723;26;20157;-68
2024/04/23 12:39:30;;;;;;;6.03;3.28;;;13.80;46.10;;;;;;6803533;26;19997;-69
2024/04/23 12:42:32;;;;;;;5.18;3.28;;;13.90;45.90;;;;;;6804908;25;20016;-69
2024/04/23 12:45:34;;;;;;;6.38;2.88;;;13.90;45.60;;;;;;6839599;25;20073;-68
2024/04/23 12:48:37;;;;;;;5.40;3.50;;;13.80;45.50;;;;;;6838475;26;21354;-68
2024/04/23 12:51:41;;;;;;;4.32;2.72;;;13.90;45.60;;;;;;6804413;26;20013;-69
2024/04/23 12:54:42;;;;;;;6.53;3.08;;;13.90;45.50;;;;;;6837800;26;20012;-69
2024/04/23 12:57:43;;;;;;;4.07;2.83;;;13.90;45.30;;;;;;6774281;26;20065;-71
2024/04/23 13:00:44;;;;;;;5.10;2.78;;;13.90;45.30;;;;;;6774045;26;19990;-69
2024/04/23 13:03:45;;;;;;;5.25;3.17;;;13.80;45.20;;;;;;6837214;26;20294;-68
2024/04/23 13:06:46;;;;;;;4.90;2.42;;;13.80;45.20;;;;;;6804022;26;19990;-67
2024/04/23 13:09:46;;;;;;;3.53;2.45;;;13.80;45.20;;;;;;6804224;26;19998;-69
2024/04/23 13:12:49;;;;;;;5.10;3.15;;;13.80;45.30;;;;;;6837647;26;20134;-67
2024/04/23 13:15:50;;;;;;;5.53;2.70;;;13.90;45.30;;;;;;6805070;26;20482;-69
2024/04/23 13:18:50;;;;;;;6.78;3.47;;;14.00;45.20;;;;;;6834382;26;20056;-68
2024/04/23 13:21:54;;;;;;;7.57;3.28;;;14.50;44.70;;;;;;6837771;26;20077;-67
2024/04/23 13:24:55;;;;;;;6.68;3.72;;;14.90;43.80;;;;;;6804068;26;20013;-68
2024/04/23 13:27:56;;;;;;;6.47;3.47;;;14.80;43.60;;;;;;6805640;26;19997;-70
2024/04/23 13:30:57;;;;;;;7.40;3.63;;;14.70;43.60;;;;;;6838157;26;20077;-69
2024/04/23 13:33:58;;;;;;;9.73;3.15;;;14.50;44.10;;;;;;6775215;26;20512;-67
2024/04/23 13:37:00;;;;;;;5.78;3.20;;;14.30;44.20;;;;;;6801087;26;20453;-66
2024/04/23 13:40:06;;;;;;;5.28;3.10;;;14.10;44.50;;;;;;6794173;26;19997;-70
2024/04/23 13:43:07;;;;;;;4.13;2.65;;;13.90;44.80;;;;;;6804335;26;20065;-70
2024/04/23 13:46:09;;;;;;;4.35;2.75;;;13.90;45.20;;;;;;6804956;26;20008;-66
2024/04/23 13:49:14;;;;;;;8.70;3.20;;;13.80;45.40;;;;;;6745758;26;20049;-66
2024/04/23 13:52:16;;;;;;;5.07;3.13;;;13.70;45.50;;;;;;6775073;26;20009;-68
2024/04/23 13:55:18;;;;;;;4.85;2.88;;;13.60;45.70;;;;;;6810605;26;20026;-70
2024/04/23 13:58:19;;;;;;;4.15;2.33;;;13.60;45.80;;;;;;6805766;26;20013;-67
2024/04/23 14:01:20;;;;;;;5.45;2.60;;;13.60;45.80;;;;;;6838231;26;20619;-66
2024/04/23 14:04:21;;;;;;;6.40;3.33;;;13.70;45.80;;;;;;6836299;26;20001;-68
2024/04/23 14:07:23;;;;;;;6.78;2.92;;;13.80;45.70;;;;;;6837159;26;20409;-69
2024/04/23 14:11:08;;;;;;;8.32;3.28;;;14.00;45.50;;;;;;6807238;26;20021;-69
2024/04/23 14:14:10;;;;;;;5.40;3.10;;;14.00;45.40;;;;;;6834703;26;20079;-68
2024/04/23 14:17:11;;;;;;;5.93;2.83;;;14.00;45.40;;;;;;6774785;26;20011;-67
2024/04/23 14:20:12;;;;;;;7.80;2.47;;;13.90;45.40;;;;;;6838114;25;19993;-68
2024/04/23 14:23:13;;;;;;;6.75;3.13;;;13.90;45.50;;;;;;6834670;26;20002;-68
2024/04/23 14:26:17;;;;;;;6.18;3.25;;;13.90;45.60;;;;;;6837338;25;20237;-66
2024/04/23 14:29:17;;;;;;;12.77;2.88;;;13.80;45.90;;;;;;6804289;26;20030;-67
2024/04/23 14:32:21;;;;;;;6.25;2.80;;;13.70;46.30;;;;;;6834222;26;20054;-68
2024/04/23 14:35:22;;;;;;;6.75;3.30;;;13.50;46.60;;;;;;6834576;26;20008;-68
2024/04/23 14:38:23;;;;;;;4.97;2.95;;;13.50;47.20;;;;;;6833911;26;20084;-68
2024/04/23 14:41:24;;;;;;;7.18;2.83;;;13.50;47.50;;;;;;6835063;26;20012;-69
2024/04/23 14:44:26;;;;;;;4.55;3.03;;;13.40;47.50;;;;;;6835369;26;20818;-67
2024/04/23 14:47:32;;;;;;;5.72;2.80;;;13.30;47.60;;;;;;6837001;25;19997;-68
2024/04/23 14:50:35;;;;;;;5.20;2.90;;;13.30;47.90;;;;;;6805603;26;20047;-68
2024/04/23 14:53:37;;;;;;;3.90;2.70;;;13.20;47.90;;;;;;6834662;26;20002;-67
2024/04/23 14:56:38;;;;;;;3.95;2.38;;;13.30;47.90;;;;;;6834550;25;20017;-68
2024/04/23 14:59:40;;;;;;;4.63;2.75;;;13.30;47.80;;;;;;6835055;25;20504;-67
2024/04/23 15:02:42;;;;;;;2.72;2.30;;;13.30;47.70;;;;;;6803735;26;20070;-68
2024/04/23 15:05:43;;;;;;;5.03;2.45;;;13.30;47.70;;;;;;6810301;26;20001;-67
2024/04/23 15:08:43;;;;;;;4.80;2.33;;;13.20;47.60;;;;;;6842040;26;20127;-68
2024/04/23 15:11:45;;;;;;;3.72;2.30;;;13.20;47.70;;;;;;6839515;26;20017;-67
2024/04/23 15:14:48;;;;;;;4.47;2.65;;;12.90;48.10;;;;;;6841389;25;20009;-69
2024/04/23 15:17:49;;;;;;;3.17;2.30;;;12.70;49.00;;;;;;6840636;26;20052;-68
2024/04/23 15:20:50;;;;;;;3.85;2.55;;;12.50;49.70;;;;;;6839682;26;20009;-68
2024/04/23 15:23:51;;;;;;;7.57;2.47;;;12.50;50.60;;;;;;6842933;25;19998;-68
2024/04/23 15:26:53;;;;;;;6.47;2.20;;;12.40;51.10;;;;;;6841921;25;19997;-67
2024/04/23 15:29:54;;;;;;;3.65;2.45;;;12.30;51.30;;;;;;6838134;26;19990;-70
2024/04/23 15:32:55;;;;;;;5.63;3.10;;;12.30;51.60;;;;;;6807924;26;20374;-67
2024/04/23 15:36:00;;;;;;;2.30;2.00;;;12.20;51.40;;;;;;6840958;25;20029;-68
2024/04/23 15:39:03;;;;;;;4.82;2.50;;;12.20;51.20;;;;;;6807510;26;20013;-69
2024/04/23 15:42:07;;;;;;;4.45;2.53;;;12.10;51.10;;;;;;6755202;26;19999;-68
2024/04/23 15:45:09;;;;;;;17.20;2.72;;;12.10;51.30;;;;;;6727791;26;19991;-70
2024/04/23 15:48:10;;;;;;;5.75;2.20;;;12.10;51.50;;;;;;6728916;26;19998;-68
2024/04/23 15:51:11;;;;;;;10.25;2.83;;;12.00;51.90;;;;;;6791320;26;20009;-68
2024/04/23 15:54:12;;;;;;;3.20;2.28;;;11.90;52.20;;;;;;6740226;26;19998;-68
2024/04/23 15:57:14;;;;;;;4.00;2.28;;;11.90;52.50;;;;;;6761601;26;20491;-68
2024/04/23 16:00:15;;;;;;;2.35;1.75;;;11.80;52.20;;;;;;6760379;26;19994;-68
2024/04/23 16:03:18;;;;;;;3.17;2.08;;;11.80;52.00;;;;;;6775459;26;20047;-67
2024/04/23 16:06:20;;;;;;;3.67;2.38;;;11.90;51.70;;;;;;6761345;26;20451;-68
2024/04/23 16:09:21;;;;;;;6.72;2.38;;;11.90;51.20;;;;;;6729184;26;20028;-68